sensor_id;sensor_type;location;lat;lon;timestamp;P1;durP1;ratioP1;P2;durP2;ratioP2
5912;SDS011;2982;42.684;23.356;2023-04-03T00:02:09;11.98;;;7.57;;
5912;SDS011;2982;42.684;23.356;2023-04-03T00:04:35;9.13;;;6.70;;
5912;SDS011;2982;42.684;23.356;2023-04-03T00:07:00;11.30;;;6.33;;
5912;SDS011;2982;42.684;23.356;2023-04-03T00:09:25;13.57;;;8.40;;
5912;SDS011;2982;42.684;23.356;2023-04-03T00:11:51;9.93;;;6.90;;
5912;SDS011;2982;42.684;23.356;2023-04-03T00:14:16;11.17;;;6.17;;
5912;SDS011;2982;42.684;23.356;2023-04-03T00:16:41;9.33;;;5.27;;
5912;SDS011;2982;42.684;23.356;2023-04-03T00:19:07;6.63;;;5.53;;
5912;SDS011;2982;42.684;23.356;2023-04-03T00:21:32;9.40;;;5.57;;
5912;SDS011;2982;42.684;23.356;2023-04-03T00:23:57;8.90;;;5.33;;
5912;SDS011;2982;42.684;23.356;2023-04-03T00:26:23;12.07;;;5.37;;
5912;SDS011;2982;42.684;23.356;2023-04-03T00:28:48;6.43;;;5.13;;
5912;SDS011;2982;42.684;23.356;2023-04-03T00:31:14;9.40;;;5.37;;
5912;SDS011;2982;42.684;23.356;2023-04-03T00:33:40;9.73;;;5.00;;
5912;SDS011;2982;42.684;23.356;2023-04-03T00:36:06;12.77;;;5.70;;
5912;SDS011;2982;42.684;23.356;2023-04-03T00:38:35;12.13;;;5.53;;
5912;SDS011;2982;42.684;23.356;2023-04-03T00:41:00;8.23;;;5.00;;
5912;SDS011;2982;42.684;23.356;2023-04-03T00:43:25;5.63;;;5.07;;
5912;SDS011;2982;42.684;23.356;2023-04-03T00:45:51;7.17;;;5.30;;
5912;SDS011;2982;42.684;23.356;2023-04-03T00:48:20;8.47;;;5.57;;
5912;SDS011;2982;42.684;23.356;2023-04-03T00:50:50;9.13;;;5.80;;
5912;SDS011;2982;42.684;23.356;2023-04-03T00:53:18;7.00;;;5.87;;
5912;SDS011;2982;42.684;23.356;2023-04-03T00:55:48;7.80;;;5.47;;
5912;SDS011;2982;42.684;23.356;2023-04-03T00:58:15;7.87;;;5.63;;
5912;SDS011;2982;42.684;23.356;2023-04-03T01:00:43;8.67;;;5.43;;
5912;SDS011;2982;42.684;23.356;2023-04-03T01:03:12;7.03;;;5.23;;
5912;SDS011;2982;42.684;23.356;2023-04-03T01:05:38;9.83;;;6.07;;
5912;SDS011;2982;42.684;23.356;2023-04-03T01:08:04;5.10;;;4.43;;
5912;SDS011;2982;42.684;23.356;2023-04-03T01:10:30;6.10;;;5.10;;
5912;SDS011;2982;42.684;23.356;2023-04-03T01:12:55;8.32;;;5.30;;
5912;SDS011;2982;42.684;23.356;2023-04-03T01:15:22;7.33;;;4.63;;
5912;SDS011;2982;42.684;23.356;2023-04-03T01:17:51;13.53;;;5.97;;
5912;SDS011;2982;42.684;23.356;2023-04-03T01:22:59;6.80;;;5.13;;
5912;SDS011;2982;42.684;23.356;2023-04-03T01:25:36;8.63;;;4.60;;
5912;SDS011;2982;42.684;23.356;2023-04-03T01:28:04;7.03;;;4.50;;
5912;SDS011;2982;42.684;23.356;2023-04-03T01:30:31;7.77;;;5.23;;
5912;SDS011;2982;42.684;23.356;2023-04-03T01:33:00;10.70;;;5.23;;
5912;SDS011;2982;42.684;23.356;2023-04-03T01:35:25;5.73;;;5.10;;
5912;SDS011;2982;42.684;23.356;2023-04-03T01:37:50;6.80;;;5.60;;
5912;SDS011;2982;42.684;23.356;2023-04-03T01:40:15;11.17;;;6.70;;
5912;SDS011;2982;42.684;23.356;2023-04-03T01:42:41;8.17;;;6.13;;
5912;SDS011;2982;42.684;23.356;2023-04-03T01:45:06;8.13;;;5.57;;
5912;SDS011;2982;42.684;23.356;2023-04-03T01:47:32;9.13;;;6.43;;
5912;SDS011;2982;42.684;23.356;2023-04-03T01:49:57;8.50;;;5.17;;
5912;SDS011;2982;42.684;23.356;2023-04-03T01:52:22;8.37;;;5.97;;
5912;SDS011;2982;42.684;23.356;2023-04-03T01:54:48;7.67;;;5.30;;
5912;SDS011;2982;42.684;23.356;2023-04-03T01:57:13;8.60;;;6.03;;
5912;SDS011;2982;42.684;23.356;2023-04-03T01:59:38;5.03;;;4.17;;
5912;SDS011;2982;42.684;23.356;2023-04-03T02:02:04;5.33;;;3.97;;
5912;SDS011;2982;42.684;23.356;2023-04-03T02:04:29;6.50;;;4.27;;
5912;SDS011;2982;42.684;23.356;2023-04-03T02:06:54;11.50;;;5.30;;
5912;SDS011;2982;42.684;23.356;2023-04-03T02:09:20;10.33;;;7.90;;
5912;SDS011;2982;42.684;23.356;2023-04-03T02:11:45;16.57;;;8.33;;
5912;SDS011;2982;42.684;23.356;2023-04-03T02:14:10;11.37;;;6.67;;
5912;SDS011;2982;42.684;23.356;2023-04-03T02:16:35;11.70;;;8.03;;
5912;SDS011;2982;42.684;23.356;2023-04-03T02:19:01;4.93;;;4.53;;
5912;SDS011;2982;42.684;23.356;2023-04-03T02:21:26;8.07;;;7.23;;
5912;SDS011;2982;42.684;23.356;2023-04-03T02:23:51;11.27;;;6.80;;
5912;SDS011;2982;42.684;23.356;2023-04-03T02:26:16;16.33;;;10.07;;
5912;SDS011;2982;42.684;23.356;2023-04-03T02:28:42;8.50;;;6.10;;
5912;SDS011;2982;42.684;23.356;2023-04-03T02:31:07;12.40;;;9.17;;
5912;SDS011;2982;42.684;23.356;2023-04-03T02:33:34;14.80;;;9.47;;
5912;SDS011;2982;42.684;23.356;2023-04-03T02:36:00;12.57;;;8.93;;
5912;SDS011;2982;42.684;23.356;2023-04-03T02:38:25;13.43;;;8.93;;
5912;SDS011;2982;42.684;23.356;2023-04-03T02:40:51;11.23;;;8.47;;
5912;SDS011;2982;42.684;23.356;2023-04-03T02:43:16;9.20;;;6.73;;
5912;SDS011;2982;42.684;23.356;2023-04-03T02:45:42;14.37;;;8.83;;
5912;SDS011;2982;42.684;23.356;2023-04-03T02:48:07;16.27;;;7.53;;
5912;SDS011;2982;42.684;23.356;2023-04-03T02:50:33;19.37;;;9.77;;
5912;SDS011;2982;42.684;23.356;2023-04-03T02:52:58;14.40;;;8.90;;
5912;SDS011;2982;42.684;23.356;2023-04-03T02:55:23;17.73;;;9.77;;
5912;SDS011;2982;42.684;23.356;2023-04-03T02:57:49;18.40;;;9.70;;
5912;SDS011;2982;42.684;23.356;2023-04-03T03:00:14;22.13;;;9.93;;
5912;SDS011;2982;42.684;23.356;2023-04-03T03:02:40;21.37;;;9.63;;
5912;SDS011;2982;42.684;23.356;2023-04-03T03:05:05;20.50;;;9.27;;
5912;SDS011;2982;42.684;23.356;2023-04-03T03:07:31;21.80;;;10.30;;
5912;SDS011;2982;42.684;23.356;2023-04-03T03:09:57;17.70;;;9.30;;
5912;SDS011;2982;42.684;23.356;2023-04-03T03:12:22;19.17;;;9.37;;
5912;SDS011;2982;42.684;23.356;2023-04-03T03:14:47;10.60;;;8.10;;
5912;SDS011;2982;42.684;23.356;2023-04-03T03:17:13;14.80;;;8.37;;
5912;SDS011;2982;42.684;23.356;2023-04-03T03:19:38;14.57;;;9.10;;
5912;SDS011;2982;42.684;23.356;2023-04-03T03:22:03;10.93;;;7.70;;
5912;SDS011;2982;42.684;23.356;2023-04-03T03:24:29;14.23;;;8.10;;
5912;SDS011;2982;42.684;23.356;2023-04-03T03:26:54;13.80;;;8.07;;
5912;SDS011;2982;42.684;23.356;2023-04-03T03:29:19;17.10;;;8.50;;
5912;SDS011;2982;42.684;23.356;2023-04-03T03:31:45;10.40;;;6.83;;
5912;SDS011;2982;42.684;23.356;2023-04-03T03:34:10;17.47;;;7.10;;
5912;SDS011;2982;42.684;23.356;2023-04-03T03:36:36;9.30;;;7.17;;
5912;SDS011;2982;42.684;23.356;2023-04-03T03:39:01;10.03;;;5.93;;
5912;SDS011;2982;42.684;23.356;2023-04-03T03:41:26;10.67;;;6.43;;
5912;SDS011;2982;42.684;23.356;2023-04-03T03:43:52;13.80;;;7.17;;
5912;SDS011;2982;42.684;23.356;2023-04-03T03:46:17;16.00;;;7.07;;
5912;SDS011;2982;42.684;23.356;2023-04-03T03:48:43;13.30;;;7.50;;
5912;SDS011;2982;42.684;23.356;2023-04-03T03:51:10;11.23;;;7.17;;
5912;SDS011;2982;42.684;23.356;2023-04-03T03:53:36;13.53;;;6.90;;
5912;SDS011;2982;42.684;23.356;2023-04-03T03:56:01;9.87;;;6.67;;
5912;SDS011;2982;42.684;23.356;2023-04-03T03:58:27;11.13;;;6.80;;
5912;SDS011;2982;42.684;23.356;2023-04-03T04:00:53;10.47;;;6.63;;
5912;SDS011;2982;42.684;23.356;2023-04-03T04:03:18;8.83;;;6.73;;
5912;SDS011;2982;42.684;23.356;2023-04-03T04:05:43;12.30;;;6.43;;
5912;SDS011;2982;42.684;23.356;2023-04-03T04:08:09;10.77;;;6.27;;
5912;SDS011;2982;42.684;23.356;2023-04-03T04:10:34;9.50;;;6.40;;
5912;SDS011;2982;42.684;23.356;2023-04-03T04:13:02;13.53;;;6.50;;
5912;SDS011;2982;42.684;23.356;2023-04-03T04:15:27;15.00;;;7.03;;
5912;SDS011;2982;42.684;23.356;2023-04-03T04:17:52;16.17;;;7.10;;
5912;SDS011;2982;42.684;23.356;2023-04-03T04:20:18;12.23;;;6.77;;
5912;SDS011;2982;42.684;23.356;2023-04-03T04:22:43;14.97;;;8.03;;
5912;SDS011;2982;42.684;23.356;2023-04-03T04:25:08;23.57;;;7.87;;
5912;SDS011;2982;42.684;23.356;2023-04-03T04:27:34;13.10;;;7.07;;
5912;SDS011;2982;42.684;23.356;2023-04-03T04:29:59;15.90;;;8.57;;
5912;SDS011;2982;42.684;23.356;2023-04-03T04:32:24;16.23;;;6.77;;
5912;SDS011;2982;42.684;23.356;2023-04-03T04:34:49;22.23;;;9.60;;
5912;SDS011;2982;42.684;23.356;2023-04-03T04:37:15;17.83;;;7.73;;
5912;SDS011;2982;42.684;23.356;2023-04-03T04:39:40;16.33;;;7.87;;
5912;SDS011;2982;42.684;23.356;2023-04-03T04:42:05;21.73;;;7.00;;
5912;SDS011;2982;42.684;23.356;2023-04-03T04:44:30;18.23;;;8.87;;
5912;SDS011;2982;42.684;23.356;2023-04-03T04:46:56;19.70;;;7.53;;
5912;SDS011;2982;42.684;23.356;2023-04-03T04:49:21;17.13;;;7.20;;
5912;SDS011;2982;42.684;23.356;2023-04-03T04:51:46;14.37;;;6.97;;
5912;SDS011;2982;42.684;23.356;2023-04-03T04:54:12;12.53;;;7.33;;
5912;SDS011;2982;42.684;23.356;2023-04-03T04:56:37;19.47;;;7.93;;
5912;SDS011;2982;42.684;23.356;2023-04-03T04:59:02;20.10;;;6.80;;
5912;SDS011;2982;42.684;23.356;2023-04-03T05:01:27;31.17;;;8.03;;
5912;SDS011;2982;42.684;23.356;2023-04-03T05:03:53;22.67;;;8.13;;
5912;SDS011;2982;42.684;23.356;2023-04-03T05:06:18;19.90;;;7.77;;
5912;SDS011;2982;42.684;23.356;2023-04-03T05:08:43;23.60;;;8.67;;
5912;SDS011;2982;42.684;23.356;2023-04-03T05:11:08;16.83;;;7.37;;
5912;SDS011;2982;42.684;23.356;2023-04-03T05:13:34;19.37;;;7.90;;
5912;SDS011;2982;42.684;23.356;2023-04-03T05:15:59;13.57;;;7.13;;
5912;SDS011;2982;42.684;23.356;2023-04-03T05:18:24;17.73;;;6.77;;
5912;SDS011;2982;42.684;23.356;2023-04-03T05:20:50;16.07;;;8.10;;
5912;SDS011;2982;42.684;23.356;2023-04-03T05:23:15;12.73;;;7.97;;
5912;SDS011;2982;42.684;23.356;2023-04-03T05:25:44;20.17;;;7.77;;
5912;SDS011;2982;42.684;23.356;2023-04-03T05:28:13;15.93;;;7.40;;
5912;SDS011;2982;42.684;23.356;2023-04-03T05:30:42;16.88;;;7.03;;
5912;SDS011;2982;42.684;23.356;2023-04-03T05:33:14;16.40;;;7.73;;
5912;SDS011;2982;42.684;23.356;2023-04-03T05:35:40;10.57;;;6.47;;
5912;SDS011;2982;42.684;23.356;2023-04-03T05:38:06;14.13;;;6.85;;
5912;SDS011;2982;42.684;23.356;2023-04-03T05:40:31;15.40;;;7.43;;
5912;SDS011;2982;42.684;23.356;2023-04-03T05:42:56;16.10;;;7.28;;
5912;SDS011;2982;42.684;23.356;2023-04-03T05:45:21;13.40;;;6.80;;
5912;SDS011;2982;42.684;23.356;2023-04-03T05:47:47;19.92;;;7.45;;
5912;SDS011;2982;42.684;23.356;2023-04-03T05:50:12;19.33;;;7.78;;
5912;SDS011;2982;42.684;23.356;2023-04-03T05:52:38;22.95;;;9.13;;
5912;SDS011;2982;42.684;23.356;2023-04-03T05:55:06;10.48;;;7.60;;
5912;SDS011;2982;42.684;23.356;2023-04-03T05:57:32;21.60;;;9.73;;
5912;SDS011;2982;42.684;23.356;2023-04-03T05:59:57;22.85;;;10.82;;
5912;SDS011;2982;42.684;23.356;2023-04-03T06:02:23;23.83;;;10.68;;
5912;SDS011;2982;42.684;23.356;2023-04-03T06:04:49;24.75;;;9.35;;
5912;SDS011;2982;42.684;23.356;2023-04-03T06:07:16;21.88;;;9.95;;
5912;SDS011;2982;42.684;23.356;2023-04-03T06:09:46;25.02;;;11.63;;
5912;SDS011;2982;42.684;23.356;2023-04-03T06:12:12;21.17;;;12.43;;
5912;SDS011;2982;42.684;23.356;2023-04-03T06:14:38;25.33;;;12.80;;
5912;SDS011;2982;42.684;23.356;2023-04-03T06:17:03;13.82;;;9.20;;
5912;SDS011;2982;42.684;23.356;2023-04-03T06:19:29;15.80;;;9.32;;
5912;SDS011;2982;42.684;23.356;2023-04-03T06:21:54;17.70;;;9.52;;
5912;SDS011;2982;42.684;23.356;2023-04-03T06:24:20;16.58;;;8.98;;
5912;SDS011;2982;42.684;23.356;2023-04-03T06:26:45;16.83;;;8.90;;
5912;SDS011;2982;42.684;23.356;2023-04-03T06:29:10;16.83;;;8.38;;
5912;SDS011;2982;42.684;23.356;2023-04-03T06:31:36;14.98;;;9.82;;
5912;SDS011;2982;42.684;23.356;2023-04-03T06:34:01;19.77;;;12.98;;
5912;SDS011;2982;42.684;23.356;2023-04-03T06:36:26;22.90;;;12.73;;
5912;SDS011;2982;42.684;23.356;2023-04-03T06:38:52;22.02;;;12.45;;
5912;SDS011;2982;42.684;23.356;2023-04-03T06:41:17;21.00;;;11.60;;
5912;SDS011;2982;42.684;23.356;2023-04-03T06:43:43;20.65;;;10.45;;
5912;SDS011;2982;42.684;23.356;2023-04-03T06:46:13;29.80;;;11.57;;
5912;SDS011;2982;42.684;23.356;2023-04-03T06:48:43;18.65;;;12.20;;
5912;SDS011;2982;42.684;23.356;2023-04-03T06:51:19;21.83;;;12.40;;
5912;SDS011;2982;42.684;23.356;2023-04-03T06:53:47;17.33;;;12.00;;
5912;SDS011;2982;42.684;23.356;2023-04-03T06:56:15;24.38;;;11.75;;
5912;SDS011;2982;42.684;23.356;2023-04-03T06:58:41;28.52;;;12.43;;
5912;SDS011;2982;42.684;23.356;2023-04-03T07:01:07;17.70;;;11.27;;
5912;SDS011;2982;42.684;23.356;2023-04-03T07:03:33;23.25;;;11.88;;
5912;SDS011;2982;42.684;23.356;2023-04-03T07:05:58;22.10;;;11.95;;
5912;SDS011;2982;42.684;23.356;2023-04-03T07:08:23;21.95;;;11.85;;
5912;SDS011;2982;42.684;23.356;2023-04-03T07:10:49;20.10;;;11.82;;
5912;SDS011;2982;42.684;23.356;2023-04-03T07:13:14;17.17;;;12.05;;
5912;SDS011;2982;42.684;23.356;2023-04-03T07:15:39;24.50;;;11.60;;
5912;SDS011;2982;42.684;23.356;2023-04-03T07:18:04;24.25;;;11.07;;
5912;SDS011;2982;42.684;23.356;2023-04-03T07:20:30;23.52;;;10.52;;
5912;SDS011;2982;42.684;23.356;2023-04-03T07:22:55;23.45;;;11.68;;
5912;SDS011;2982;42.684;23.356;2023-04-03T07:25:20;12.75;;;9.23;;
5912;SDS011;2982;42.684;23.356;2023-04-03T07:27:45;17.08;;;9.15;;
5912;SDS011;2982;42.684;23.356;2023-04-03T07:30:11;14.85;;;9.13;;
5912;SDS011;2982;42.684;23.356;2023-04-03T07:32:36;15.52;;;9.60;;
5912;SDS011;2982;42.684;23.356;2023-04-03T07:35:02;19.08;;;9.52;;
5912;SDS011;2982;42.684;23.356;2023-04-03T07:37:28;13.32;;;8.75;;
5912;SDS011;2982;42.684;23.356;2023-04-03T07:39:53;17.73;;;8.85;;
5912;SDS011;2982;42.684;23.356;2023-04-03T07:42:18;15.52;;;10.50;;
5912;SDS011;2982;42.684;23.356;2023-04-03T07:44:44;20.95;;;11.13;;
5912;SDS011;2982;42.684;23.356;2023-04-03T07:47:09;23.35;;;11.77;;
5912;SDS011;2982;42.684;23.356;2023-04-03T07:49:34;28.17;;;13.40;;
5912;SDS011;2982;42.684;23.356;2023-04-03T07:51:59;23.95;;;14.07;;
5912;SDS011;2982;42.684;23.356;2023-04-03T07:54:25;23.60;;;14.40;;
5912;SDS011;2982;42.684;23.356;2023-04-03T07:56:50;21.30;;;12.93;;
5912;SDS011;2982;42.684;23.356;2023-04-03T07:59:15;18.88;;;13.48;;
5912;SDS011;2982;42.684;23.356;2023-04-03T08:01:41;21.58;;;13.82;;
5912;SDS011;2982;42.684;23.356;2023-04-03T08:04:06;21.10;;;14.40;;
5912;SDS011;2982;42.684;23.356;2023-04-03T08:06:31;20.65;;;12.27;;
5912;SDS011;2982;42.684;23.356;2023-04-03T08:08:57;23.70;;;13.65;;
5912;SDS011;2982;42.684;23.356;2023-04-03T08:11:22;18.65;;;13.52;;
5912;SDS011;2982;42.684;23.356;2023-04-03T08:13:47;17.33;;;12.43;;
5912;SDS011;2982;42.684;23.356;2023-04-03T08:16:15;17.67;;;12.60;;
5912;SDS011;2982;42.684;23.356;2023-04-03T08:18:42;18.23;;;12.98;;
5912;SDS011;2982;42.684;23.356;2023-04-03T08:21:09;21.30;;;14.23;;
5912;SDS011;2982;42.684;23.356;2023-04-03T08:23:35;16.95;;;12.65;;
5912;SDS011;2982;42.684;23.356;2023-04-03T08:26:10;19.67;;;12.57;;
5912;SDS011;2982;42.684;23.356;2023-04-03T08:28:38;20.85;;;13.32;;
5912;SDS011;2982;42.684;23.356;2023-04-03T08:31:07;25.75;;;13.13;;
5912;SDS011;2982;42.684;23.356;2023-04-03T08:33:35;18.98;;;12.70;;
5912;SDS011;2982;42.684;23.356;2023-04-03T08:36:00;25.48;;;12.80;;
5912;SDS011;2982;42.684;23.356;2023-04-03T08:38:25;22.95;;;13.63;;
5912;SDS011;2982;42.684;23.356;2023-04-03T08:44:00;22.17;;;12.57;;
5912;SDS011;2982;42.684;23.356;2023-04-03T08:49:33;24.35;;;11.75;;
5912;SDS011;2982;42.684;23.356;2023-04-03T08:52:04;30.90;;;13.45;;
5912;SDS011;2982;42.684;23.356;2023-04-03T08:54:34;16.30;;;12.63;;
5912;SDS011;2982;42.684;23.356;2023-04-03T08:57:09;25.77;;;12.68;;
5912;SDS011;2982;42.684;23.356;2023-04-03T08:59:37;23.33;;;14.20;;
5912;SDS011;2982;42.684;23.356;2023-04-03T09:02:21;13.43;;;11.45;;
5912;SDS011;2982;42.684;23.356;2023-04-03T09:04:50;20.60;;;11.23;;
5912;SDS011;2982;42.684;23.356;2023-04-03T09:07:17;23.70;;;11.57;;
5912;SDS011;2982;42.684;23.356;2023-04-03T09:09:50;16.55;;;11.27;;
5912;SDS011;2982;42.684;23.356;2023-04-03T09:12:26;20.83;;;11.25;;
5912;SDS011;2982;42.684;23.356;2023-04-03T09:20:17;18.05;;;9.80;;
5912;SDS011;2982;42.684;23.356;2023-04-03T09:22:50;13.63;;;8.93;;
5912;SDS011;2982;42.684;23.356;2023-04-03T09:25:20;17.23;;;11.07;;
5912;SDS011;2982;42.684;23.356;2023-04-03T09:28:12;20.27;;;10.00;;
5912;SDS011;2982;42.684;23.356;2023-04-03T09:30:37;11.75;;;10.48;;
5912;SDS011;2982;42.684;23.356;2023-04-03T09:33:03;15.48;;;10.90;;
5912;SDS011;2982;42.684;23.356;2023-04-03T09:35:33;16.77;;;10.43;;
5912;SDS011;2982;42.684;23.356;2023-04-03T09:38:01;12.85;;;10.30;;
5912;SDS011;2982;42.684;23.356;2023-04-03T09:40:36;11.20;;;10.15;;
5912;SDS011;2982;42.684;23.356;2023-04-03T09:45:41;19.63;;;10.55;;
5912;SDS011;2982;42.684;23.356;2023-04-03T09:48:16;15.98;;;10.45;;
5912;SDS011;2982;42.684;23.356;2023-04-03T09:51:01;18.55;;;10.63;;
5912;SDS011;2982;42.684;23.356;2023-04-03T09:53:37;15.40;;;11.63;;
5912;SDS011;2982;42.684;23.356;2023-04-03T09:56:17;21.73;;;13.13;;
5912;SDS011;2982;42.684;23.356;2023-04-03T09:58:47;20.20;;;10.40;;
5912;SDS011;2982;42.684;23.356;2023-04-03T10:04:05;14.45;;;8.82;;
5912;SDS011;2982;42.684;23.356;2023-04-03T10:06:34;16.67;;;8.80;;
5912;SDS011;2982;42.684;23.356;2023-04-03T10:09:04;16.13;;;8.00;;
5912;SDS011;2982;42.684;23.356;2023-04-03T10:11:31;11.55;;;7.18;;
5912;SDS011;2982;42.684;23.356;2023-04-03T10:13:58;11.73;;;6.78;;
5912;SDS011;2982;42.684;23.356;2023-04-03T10:16:36;9.02;;;7.78;;
5912;SDS011;2982;42.684;23.356;2023-04-03T10:21:43;12.52;;;7.68;;
5912;SDS011;2982;42.684;23.356;2023-04-03T10:27:30;12.05;;;6.30;;
5912;SDS011;2982;42.684;23.356;2023-04-03T10:30:14;15.05;;;6.65;;
5912;SDS011;2982;42.684;23.356;2023-04-03T10:35:51;14.80;;;6.60;;
5912;SDS011;2982;42.684;23.356;2023-04-03T10:38:31;13.23;;;6.53;;
5912;SDS011;2982;42.684;23.356;2023-04-03T10:44:19;7.65;;;5.88;;
5912;SDS011;2982;42.684;23.356;2023-04-03T10:46:55;13.00;;;5.72;;
5912;SDS011;2982;42.684;23.356;2023-04-03T10:52:35;7.75;;;4.85;;
5912;SDS011;2982;42.684;23.356;2023-04-03T10:55:16;11.73;;;5.45;;
5912;SDS011;2982;42.684;23.356;2023-04-03T10:57:47;5.85;;;3.95;;
5912;SDS011;2982;42.684;23.356;2023-04-03T11:00:21;13.50;;;4.47;;
5912;SDS011;2982;42.684;23.356;2023-04-03T11:02:55;3.88;;;3.10;;
5912;SDS011;2982;42.684;23.356;2023-04-03T11:05:36;5.47;;;3.28;;
5912;SDS011;2982;42.684;23.356;2023-04-03T11:08:12;4.05;;;2.53;;
5912;SDS011;2982;42.684;23.356;2023-04-03T11:10:45;3.08;;;2.72;;
5912;SDS011;2982;42.684;23.356;2023-04-03T11:15:47;5.05;;;2.75;;
5912;SDS011;2982;42.684;23.356;2023-04-03T11:18:14;3.33;;;2.10;;
5912;SDS011;2982;42.684;23.356;2023-04-03T11:20:46;5.32;;;2.55;;
5912;SDS011;2982;42.684;23.356;2023-04-03T11:23:36;2.72;;;2.08;;
5912;SDS011;2982;42.684;23.356;2023-04-03T11:26:11;5.38;;;2.60;;
5912;SDS011;2982;42.684;23.356;2023-04-03T11:28:38;2.45;;;2.25;;
5912;SDS011;2982;42.684;23.356;2023-04-03T11:33:48;1.45;;;1.35;;
5912;SDS011;2982;42.684;23.356;2023-04-03T11:58:16;2.67;;;1.83;;
5912;SDS011;2982;42.684;23.356;2023-04-03T12:05:49;2.03;;;1.67;;
5912;SDS011;2982;42.684;23.356;2023-04-03T12:21:14;2.63;;;1.92;;
5912;SDS011;2982;42.684;23.356;2023-04-03T12:24:03;1.95;;;1.85;;
5912;SDS011;2982;42.684;23.356;2023-04-03T12:34:45;3.35;;;2.17;;
5912;SDS011;2982;42.684;23.356;2023-04-03T12:40:09;2.35;;;2.08;;
5912;SDS011;2982;42.684;23.356;2023-04-03T12:43:28;2.08;;;1.98;;
5912;SDS011;2982;42.684;23.356;2023-04-03T12:45:37;2.83;;;2.55;;
5912;SDS011;2982;42.684;23.356;2023-04-03T12:48:12;2.78;;;2.53;;
5912;SDS011;2982;42.684;23.356;2023-04-03T12:50:40;2.42;;;2.20;;
5912;SDS011;2982;42.684;23.356;2023-04-03T12:53:11;2.85;;;2.13;;
5912;SDS011;2982;42.684;23.356;2023-04-03T12:55:40;2.55;;;2.22;;
5912;SDS011;2982;42.684;23.356;2023-04-03T12:58:24;3.28;;;2.70;;
5912;SDS011;2982;42.684;23.356;2023-04-03T13:03:56;6.25;;;3.13;;
5912;SDS011;2982;42.684;23.356;2023-04-03T13:06:27;3.28;;;3.08;;
5912;SDS011;2982;42.684;23.356;2023-04-03T13:08:57;3.45;;;3.15;;
5912;SDS011;2982;42.684;23.356;2023-04-03T13:11:25;4.63;;;3.30;;
5912;SDS011;2982;42.684;23.356;2023-04-03T13:14:04;3.30;;;3.10;;
5912;SDS011;2982;42.684;23.356;2023-04-03T13:16:39;4.07;;;3.83;;
5912;SDS011;2982;42.684;23.356;2023-04-03T13:19:05;4.38;;;4.00;;
5912;SDS011;2982;42.684;23.356;2023-04-03T13:21:31;5.68;;;4.40;;
5912;SDS011;2982;42.684;23.356;2023-04-03T13:24:00;8.40;;;4.80;;
5912;SDS011;2982;42.684;23.356;2023-04-03T13:26:28;5.20;;;4.82;;
5912;SDS011;2982;42.684;23.356;2023-04-03T13:28:59;5.07;;;4.57;;
5912;SDS011;2982;42.684;23.356;2023-04-03T13:31:35;5.05;;;4.55;;
5912;SDS011;2982;42.684;23.356;2023-04-03T13:34:12;4.28;;;3.97;;
5912;SDS011;2982;42.684;23.356;2023-04-03T13:36:45;4.38;;;4.07;;
5912;SDS011;2982;42.684;23.356;2023-04-03T13:41:54;7.60;;;4.13;;
5912;SDS011;2982;42.684;23.356;2023-04-03T13:46:47;4.22;;;3.92;;
5912;SDS011;2982;42.684;23.356;2023-04-03T13:49:20;3.72;;;3.45;;
5912;SDS011;2982;42.684;23.356;2023-04-03T13:52:01;4.90;;;4.38;;
5912;SDS011;2982;42.684;23.356;2023-04-03T13:54:43;3.85;;;3.53;;
5912;SDS011;2982;42.684;23.356;2023-04-03T13:57:15;7.97;;;4.47;;
5912;SDS011;2982;42.684;23.356;2023-04-03T13:59:41;4.68;;;4.38;;
5912;SDS011;2982;42.684;23.356;2023-04-03T14:02:15;5.82;;;5.35;;
5912;SDS011;2982;42.684;23.356;2023-04-03T14:05:01;5.57;;;5.07;;
5912;SDS011;2982;42.684;23.356;2023-04-03T14:07:28;5.93;;;5.43;;
5912;SDS011;2982;42.684;23.356;2023-04-03T14:09:55;5.60;;;5.20;;
5912;SDS011;2982;42.684;23.356;2023-04-03T14:12:34;6.28;;;5.70;;
5912;SDS011;2982;42.684;23.356;2023-04-03T14:15:03;6.05;;;5.53;;
5912;SDS011;2982;42.684;23.356;2023-04-03T14:17:30;6.63;;;6.13;;
5912;SDS011;2982;42.684;23.356;2023-04-03T14:19:56;6.05;;;5.50;;
5912;SDS011;2982;42.684;23.356;2023-04-03T14:22:25;6.53;;;6.00;;
5912;SDS011;2982;42.684;23.356;2023-04-03T14:24:58;6.75;;;6.07;;
5912;SDS011;2982;42.684;23.356;2023-04-03T14:27:25;5.88;;;5.47;;
5912;SDS011;2982;42.684;23.356;2023-04-03T14:29:53;8.93;;;6.43;;
5912;SDS011;2982;42.684;23.356;2023-04-03T14:32:20;4.78;;;4.38;;
5912;SDS011;2982;42.684;23.356;2023-04-03T14:34:47;4.40;;;4.00;;
5912;SDS011;2982;42.684;23.356;2023-04-03T14:37:15;4.63;;;3.58;;
5912;SDS011;2982;42.684;23.356;2023-04-03T14:39:43;5.20;;;3.63;;
5912;SDS011;2982;42.684;23.356;2023-04-03T14:42:13;3.53;;;3.08;;
5912;SDS011;2982;42.684;23.356;2023-04-03T14:44:40;4.10;;;3.70;;
5912;SDS011;2982;42.684;23.356;2023-04-03T14:47:09;4.00;;;3.60;;
5912;SDS011;2982;42.684;23.356;2023-04-03T14:49:35;3.38;;;3.17;;
5912;SDS011;2982;42.684;23.356;2023-04-03T14:52:00;3.60;;;3.38;;
5912;SDS011;2982;42.684;23.356;2023-04-03T14:54:26;3.97;;;3.67;;
5912;SDS011;2982;42.684;23.356;2023-04-03T14:56:51;3.08;;;2.90;;
5912;SDS011;2982;42.684;23.356;2023-04-03T14:59:17;3.35;;;3.15;;
5912;SDS011;2982;42.684;23.356;2023-04-03T15:01:42;2.33;;;2.22;;
5912;SDS011;2982;42.684;23.356;2023-04-03T15:04:17;3.35;;;3.05;;
5912;SDS011;2982;42.684;23.356;2023-04-03T15:06:44;2.58;;;2.38;;
5912;SDS011;2982;42.684;23.356;2023-04-03T15:11:50;2.08;;;1.88;;
5912;SDS011;2982;42.684;23.356;2023-04-03T15:14:17;2.60;;;2.40;;
5912;SDS011;2982;42.684;23.356;2023-04-03T15:16:43;2.45;;;1.83;;
5912;SDS011;2982;42.684;23.356;2023-04-03T15:19:08;2.40;;;2.20;;
5912;SDS011;2982;42.684;23.356;2023-04-03T15:21:34;2.05;;;1.95;;
5912;SDS011;2982;42.684;23.356;2023-04-03T15:24:00;1.85;;;1.75;;
5912;SDS011;2982;42.684;23.356;2023-04-03T15:26:26;2.28;;;2.17;;
5912;SDS011;2982;42.684;23.356;2023-04-03T15:28:51;2.07;;;1.97;;
5912;SDS011;2982;42.684;23.356;2023-04-03T15:31:17;2.47;;;2.37;;
5912;SDS011;2982;42.684;23.356;2023-04-03T15:33:42;2.00;;;1.90;;
5912;SDS011;2982;42.684;23.356;2023-04-03T15:36:07;2.17;;;1.97;;
5912;SDS011;2982;42.684;23.356;2023-04-03T15:38:33;1.80;;;1.70;;
5912;SDS011;2982;42.684;23.356;2023-04-03T15:40:58;2.40;;;2.20;;
5912;SDS011;2982;42.684;23.356;2023-04-03T15:43:24;2.90;;;2.33;;
5912;SDS011;2982;42.684;23.356;2023-04-03T15:45:49;2.67;;;2.58;;
5912;SDS011;2982;42.684;23.356;2023-04-03T15:48:15;5.93;;;3.95;;
5912;SDS011;2982;42.684;23.356;2023-04-03T15:50:41;2.55;;;2.35;;
5912;SDS011;2982;42.684;23.356;2023-04-03T15:53:07;3.38;;;3.17;;
5912;SDS011;2982;42.684;23.356;2023-04-03T15:55:34;3.42;;;3.22;;
5912;SDS011;2982;42.684;23.356;2023-04-03T15:58:01;3.63;;;3.42;;
5912;SDS011;2982;42.684;23.356;2023-04-03T16:00:27;3.97;;;3.63;;
5912;SDS011;2982;42.684;23.356;2023-04-03T16:02:55;4.68;;;4.43;;
5912;SDS011;2982;42.684;23.356;2023-04-03T16:05:24;4.95;;;4.65;;
5912;SDS011;2982;42.684;23.356;2023-04-03T16:07:50;4.40;;;4.10;;
5912;SDS011;2982;42.684;23.356;2023-04-03T16:10:16;4.78;;;4.43;;
5912;SDS011;2982;42.684;23.356;2023-04-03T16:12:43;4.43;;;4.13;;
5912;SDS011;2982;42.684;23.356;2023-04-03T16:15:08;5.40;;;4.93;;
5912;SDS011;2982;42.684;23.356;2023-04-03T16:17:35;4.50;;;4.13;;
5912;SDS011;2982;42.684;23.356;2023-04-03T16:20:05;4.95;;;4.47;;
5912;SDS011;2982;42.684;23.356;2023-04-03T16:22:31;8.07;;;5.45;;
5912;SDS011;2982;42.684;23.356;2023-04-03T16:24:57;6.28;;;5.68;;
5912;SDS011;2982;42.684;23.356;2023-04-03T16:27:23;6.00;;;4.90;;
5912;SDS011;2982;42.684;23.356;2023-04-03T16:29:48;6.10;;;5.70;;
5912;SDS011;2982;42.684;23.356;2023-04-03T16:32:13;6.10;;;5.55;;
5912;SDS011;2982;42.684;23.356;2023-04-03T16:34:39;6.00;;;5.38;;
5912;SDS011;2982;42.684;23.356;2023-04-03T16:37:05;6.00;;;5.60;;